Jork Reliance — V2CL2 — position and weather

sailwx.info

Track history (hours):
 
Tides and Currents Weather Stations Pressure Air Temp Water Temp Dewpoint Dewpoint Depression Visibility Wind Speed Wind Dir Waves Ship Positions

Jork Reliance

Last reported at 2015-Jan-26 03:28 UTC. Time now 2015-Jan-27 10:25 UTC.
Position N 49°41' W 000°39'.

Length 141 m; draft 6.3 m.

Type: Ship (hazmat cat A). MMSI: 305033000.

Date/timePositionNaut miles runAvg speedWind from/ knotsBaromVisibWave heightAir tempDewpointWater temp
2015-Jan-26 03:28N 49°41' W 000°39'1213.5
2015-Jan-26 02:33N 49°36' W 000°22'1312.9
2015-Jan-26 01:33N 49°31' W 000°04'8 8.3
2015-Jan-26 00:33N 49°28' E 000°08'0 0.0
2015-Jan-25 23:28N 49°28' E 000°08'0 0.0
2015-Jan-25 22:31N 49°28' E 000°08'0 0.0
2015-Jan-25 21:31N 49°28' E 000°08'0 0.0
2015-Jan-25 20:31N 49°28' E 000°08'0 0.0
2015-Jan-25 19:33N 49°28' E 000°08'0 0.0
2015-Jan-25 18:33N 49°28' E 000°08'8 8.1
2015-Jan-25 17:33N 49°30' W 000°04'9 9.0
2015-Jan-25 16:33N 49°37' W 000°12'8 8.5
2015-Jan-25 15:33N 49°46' W 000°11'52 8.7
2015-Jan-25 09:33N 50°33' E 000°21'1413.7
2015-Jan-25 08:34N 50°39' E 000°40'1414.2
2015-Jan-25 07:33N 50°48' E 000°58'1313.3
2015-Jan-25 06:33N 50°57' E 001°14'1212.1
2015-Jan-25 05:33N 51°05' E 001°29'1110.8
2015-Jan-25 04:33N 51°12' E 001°42'1110.9
2015-Jan-25 03:33N 51°20' E 001°54'9 8.8
2015-Jan-25 02:33N 51°24' E 002°06'1111.2
2015-Jan-25 01:32N 51°22' E 002°24'1312.8
2015-Jan-25 00:33N 51°22' E 002°44'1515.3
2015-Jan-24 23:33N 51°24' E 003°09'1615.7
2015-Jan-24 22:33N 51°26' E 003°34'1312.6
2015-Jan-24 21:33N 51°21' E 003°52'1312.7
2015-Jan-24 20:34N 51°24' E 004°12'4 4.4
2015-Jan-24 19:34N 51°21' E 004°17'0 0.5
2015-Jan-24 18:33N 51°21' E 004°18'2 1.6
2015-Jan-24 17:34N 51°19' E 004°19'0 0.1
2015-Jan-24 16:33N 51°19' E 004°19'0 0.0
2015-Jan-24 15:33N 51°19' E 004°19'0 0.0
2015-Jan-24 14:33N 51°19' E 004°19'0 0.0
2015-Jan-24 13:30N 51°19' E 004°19'0 0.0
2015-Jan-24 12:33N 51°19' E 004°19'0 0.0
2015-Jan-24 11:33N 51°19' E 004°19'0 0.0
2015-Jan-24 10:33N 51°19' E 004°19'0 0.0
2015-Jan-24 09:30N 51°19' E 004°19'0 0.0
2015-Jan-24 08:33N 51°19' E 004°19'0 0.0
2015-Jan-24 07:33N 51°19' E 004°19'0 0.0
2015-Jan-24 06:33N 51°19' E 004°19'0 0.0
2015-Jan-24 05:33N 51°19' E 004°19'0 0.0
2015-Jan-24 04:33N 51°19' E 004°19'0 0.0
2015-Jan-24 03:33N 51°19' E 004°19'0 0.0
2015-Jan-24 02:33N 51°19' E 004°19'2 1.6
2015-Jan-24 01:33N 51°21' E 004°17'0 0.0
2015-Jan-24 00:33N 51°21' E 004°17'0 0.0
2015-Jan-23 23:33N 51°21' E 004°17'5 5.1
2015-Jan-23 22:33N 51°23' E 004°10'8 8.3
2015-Jan-23 21:33N 51°23' E 003°57'9 9.3
2015-Jan-23 20:33N 51°25' E 003°42'8 8.2
2015-Jan-23 19:34N 51°25' E 003°29'1010.4
2015-Jan-23 18:34N 51°24' E 003°13'1211.9
2015-Jan-23 17:34N 51°22' E 002°54'1010.3
2015-Jan-23 16:34N 51°22' E 002°38'1110.9
2015-Jan-23 15:32N 51°19' E 002°20'1414.3
2015-Jan-23 14:33N 51°12' E 002°01'1211.9
2015-Jan-23 13:33N 51°03' E 001°48'1111.3
2015-Jan-23 12:33N 51°03' E 002°06'4 3.7
2015-Jan-23 11:32N 51°01' E 002°11'0 0.0
2015-Jan-23 10:32N 51°01' E 002°11'0 0.0
2015-Jan-23 09:32N 51°01' E 002°11'0 0.0
2015-Jan-23 08:32N 51°01' E 002°11'0 0.0
2015-Jan-23 07:32N 51°01' E 002°11'0 0.0
2015-Jan-23 06:32N 51°01' E 002°11'0 0.0
2015-Jan-23 05:26N 51°01' E 002°11'0 0.0
2015-Jan-23 04:29N 51°01' E 002°11'0 0.3
2015-Jan-23 03:33N 51°01' E 002°11'1312.9
2015-Jan-23 02:33N 51°02' E 001°50'1414.2
2015-Jan-23 01:33N 50°56' E 001°30'371 7.4
2015-Jan-20 23:16N 44°54' W 000°32'0 0.0
2015-Jan-20 21:28N 44°54' W 000°32'12 0.6
2015-Jan-20 03:22N 45°05' W 000°40'276 6.4
2015-Jan-18 08:33N 49°40' W 000°37'1514.8
2015-Jan-18 07:33N 49°34' W 000°17'1414.1
2015-Jan-18 06:34N 49°29' E 000°04'3 3.1
2015-Jan-18 05:32N 49°28' E 000°08'0 0.0
2015-Jan-18 04:32N 49°28' E 000°08'0 0.0
2015-Jan-18 03:32N 49°28' E 000°08'0 0.0
2015-Jan-18 02:26N 49°28' E 000°08'0 0.0
2015-Jan-18 01:32N 49°28' E 000°08'0 0.0
2015-Jan-18 00:29N 49°28' E 000°08'0 0.2
2015-Jan-17 23:33N 49°28' E 000°08'1211.7
2015-Jan-17 22:33N 49°33' W 000°09'6613.2
2015-Jan-17 17:33N 50°35' E 000°26'1514.7
2015-Jan-17 16:33N 50°43' E 000°45'1616.0
2015-Jan-17 15:33N 50°52' E 001°07'1616.4
2015-Jan-17 14:33N 51°03' E 001°26'1615.9
2015-Jan-17 13:34N 51°13' E 001°45'1514.9
2015-Jan-17 12:33N 51°25' E 001°59'1514.8
2015-Jan-17 11:32N 51°21' E 002°23'1414.6
2015-Jan-17 10:34N 51°22' E 002°45'1313.3
2015-Jan-17 09:33N 51°24' E 003°07'1413.9
2015-Jan-17 08:34N 51°25' E 003°29'9 9.4
2015-Jan-17 07:34N 51°23' E 003°43'1211.6
2015-Jan-17 06:34N 51°26' E 004°01'1110.8
2015-Jan-17 05:34N 51°20' E 004°16'4 4.2
2015-Jan-17 04:34N 51°17' E 004°20'1 1.3
2015-Jan-17 03:33N 51°18' E 004°20'2 1.5
2015-Jan-17 02:32N 51°19' E 004°20'0 0.0
2015-Jan-17 01:29N 51°19' E 004°20'0 0.0
2015-Jan-17 00:32N 51°19' E 004°20'0 0.0
2015-Jan-16 23:32N 51°19' E 004°20'0 0.0
2015-Jan-16 22:32N 51°19' E 004°20'0 0.0
2015-Jan-16 21:29N 51°19' E 004°20'0 0.0
2015-Jan-16 20:32N 51°19' E 004°20'0 0.1
2015-Jan-16 19:32N 51°19' E 004°20'0 0.0
2015-Jan-16 18:29N 51°19' E 004°20'0 0.0
2015-Jan-16 17:26N 51°19' E 004°20'0 0.0
2015-Jan-16 16:26N 51°19' E 004°20'0 0.0
2015-Jan-16 15:32N 51°19' E 004°20'0 0.0
2015-Jan-16 14:32N 51°19' E 004°20'0 0.0
2015-Jan-16 13:32N 51°19' E 004°20'0 0.0
2015-Jan-16 12:32N 51°19' E 004°20'1 1.2
2015-Jan-16 11:33N 51°18' E 004°19'2 1.9
2015-Jan-16 10:32N 51°17' E 004°21'0 0.0
2015-Jan-16 09:32N 51°17' E 004°21'0 0.0
2015-Jan-16 08:32N 51°17' E 004°21'0 0.0
2015-Jan-16 07:29N 51°17' E 004°21'0 0.0
2015-Jan-16 06:32N 51°17' E 004°21'0 0.0
2015-Jan-16 05:32N 51°17' E 004°21'0 0.0
2015-Jan-16 04:32N 51°17' E 004°21'0 0.0
2015-Jan-16 03:29N 51°17' E 004°21'  
Track history (hours):
 
Tides and Currents Weather Stations Pressure Air Temp Water Temp Dewpoint Dewpoint Depression Visibility Wind Speed Wind Dir Waves Ship Positions

Jork Reliance

Last reported at 2015-Jan-26 03:28 UTC. Time now 2015-Jan-27 10:25 UTC.
Position N 49°41' W 000°39'.

Length 141 m; draft 6.3 m.

Type: Ship (hazmat cat A). MMSI: 305033000.

Date/timePositionNaut miles runAvg speedWind from/ knotsBaromVisibWave heightAir tempDewpointWater temp
2015-Jan-26 03:28N 49°41' W 000°39'1213.5
2015-Jan-26 02:33N 49°36' W 000°22'1312.9
2015-Jan-26 01:33N 49°31' W 000°04'8 8.3
2015-Jan-26 00:33N 49°28' E 000°08'0 0.0
2015-Jan-25 23:28N 49°28' E 000°08'0 0.0
2015-Jan-25 22:31N 49°28' E 000°08'0 0.0
2015-Jan-25 21:31N 49°28' E 000°08'0 0.0
2015-Jan-25 20:31N 49°28' E 000°08'0 0.0
2015-Jan-25 19:33N 49°28' E 000°08'0 0.0
2015-Jan-25 18:33N 49°28' E 000°08'8 8.1
2015-Jan-25 17:33N 49°30' W 000°04'9 9.0
2015-Jan-25 16:33N 49°37' W 000°12'8 8.5
2015-Jan-25 15:33N 49°46' W 000°11'52 8.7
2015-Jan-25 09:33N 50°33' E 000°21'1413.7
2015-Jan-25 08:34N 50°39' E 000°40'1414.2
2015-Jan-25 07:33N 50°48' E 000°58'1313.3
2015-Jan-25 06:33N 50°57' E 001°14'1212.1
2015-Jan-25 05:33N 51°05' E 001°29'1110.8
2015-Jan-25 04:33N 51°12' E 001°42'1110.9
2015-Jan-25 03:33N 51°20' E 001°54'9 8.8
2015-Jan-25 02:33N 51°24' E 002°06'1111.2
2015-Jan-25 01:32N 51°22' E 002°24'1312.8
2015-Jan-25 00:33N 51°22' E 002°44'1515.3
2015-Jan-24 23:33N 51°24' E 003°09'1615.7
2015-Jan-24 22:33N 51°26' E 003°34'1312.6
2015-Jan-24 21:33N 51°21' E 003°52'1312.7
2015-Jan-24 20:34N 51°24' E 004°12'4 4.4
2015-Jan-24 19:34N 51°21' E 004°17'0 0.5
2015-Jan-24 18:33N 51°21' E 004°18'2 1.6
2015-Jan-24 17:34N 51°19' E 004°19'0 0.1
2015-Jan-24 16:33N 51°19' E 004°19'0 0.0
2015-Jan-24 15:33N 51°19' E 004°19'0 0.0
2015-Jan-24 14:33N 51°19' E 004°19'0 0.0
2015-Jan-24 13:30N 51°19' E 004°19'0 0.0
2015-Jan-24 12:33N 51°19' E 004°19'0 0.0
2015-Jan-24 11:33N 51°19' E 004°19'0 0.0
2015-Jan-24 10:33N 51°19' E 004°19'0 0.0
2015-Jan-24 09:30N 51°19' E 004°19'0 0.0
2015-Jan-24 08:33N 51°19' E 004°19'0 0.0
2015-Jan-24 07:33N 51°19' E 004°19'0 0.0
2015-Jan-24 06:33N 51°19' E 004°19'0 0.0
2015-Jan-24 05:33N 51°19' E 004°19'0 0.0
2015-Jan-24 04:33N 51°19' E 004°19'0 0.0
2015-Jan-24 03:33N 51°19' E 004°19'0 0.0
2015-Jan-24 02:33N 51°19' E 004°19'2 1.6
2015-Jan-24 01:33N 51°21' E 004°17'0 0.0
2015-Jan-24 00:33N 51°21' E 004°17'0 0.0
2015-Jan-23 23:33N 51°21' E 004°17'5 5.1
2015-Jan-23 22:33N 51°23' E 004°10'8 8.3
2015-Jan-23 21:33N 51°23' E 003°57'9 9.3
2015-Jan-23 20:33N 51°25' E 003°42'8 8.2
2015-Jan-23 19:34N 51°25' E 003°29'1010.4
2015-Jan-23 18:34N 51°24' E 003°13'1211.9
2015-Jan-23 17:34N 51°22' E 002°54'1010.3
2015-Jan-23 16:34N 51°22' E 002°38'1110.9
2015-Jan-23 15:32N 51°19' E 002°20'1414.3
2015-Jan-23 14:33N 51°12' E 002°01'1211.9
2015-Jan-23 13:33N 51°03' E 001°48'1111.3
2015-Jan-23 12:33N 51°03' E 002°06'4 3.7
2015-Jan-23 11:32N 51°01' E 002°11'0 0.0
2015-Jan-23 10:32N 51°01' E 002°11'0 0.0
2015-Jan-23 09:32N 51°01' E 002°11'0 0.0
2015-Jan-23 08:32N 51°01' E 002°11'0 0.0
2015-Jan-23 07:32N 51°01' E 002°11'0 0.0
2015-Jan-23 06:32N 51°01' E 002°11'0 0.0
2015-Jan-23 05:26N 51°01' E 002°11'0 0.0
2015-Jan-23 04:29N 51°01' E 002°11'0 0.3
2015-Jan-23 03:33N 51°01' E 002°11'1312.9
2015-Jan-23 02:33N 51°02' E 001°50'1414.2
2015-Jan-23 01:33N 50°56' E 001°30'371 7.4
2015-Jan-20 23:16N 44°54' W 000°32'0 0.0
2015-Jan-20 21:28N 44°54' W 000°32'12 0.6
2015-Jan-20 03:22N 45°05' W 000°40'276 6.4
2015-Jan-18 08:33N 49°40' W 000°37'1514.8
2015-Jan-18 07:33N 49°34' W 000°17'1414.1
2015-Jan-18 06:34N 49°29' E 000°04'3 3.1
2015-Jan-18 05:32N 49°28' E 000°08'0 0.0
2015-Jan-18 04:32N 49°28' E 000°08'0 0.0
2015-Jan-18 03:32N 49°28' E 000°08'0 0.0
2015-Jan-18 02:26N 49°28' E 000°08'0 0.0
2015-Jan-18 01:32N 49°28' E 000°08'0 0.0
2015-Jan-18 00:29N 49°28' E 000°08'0 0.2
2015-Jan-17 23:33N 49°28' E 000°08'1211.7
2015-Jan-17 22:33N 49°33' W 000°09'6613.2
2015-Jan-17 17:33N 50°35' E 000°26'1514.7
2015-Jan-17 16:33N 50°43' E 000°45'1616.0
2015-Jan-17 15:33N 50°52' E 001°07'1616.4
2015-Jan-17 14:33N 51°03' E 001°26'1615.9
2015-Jan-17 13:34N 51°13' E 001°45'1514.9
2015-Jan-17 12:33N 51°25' E 001°59'1514.8
2015-Jan-17 11:32N 51°21' E 002°23'1414.6
2015-Jan-17 10:34N 51°22' E 002°45'1313.3
2015-Jan-17 09:33N 51°24' E 003°07'1413.9
2015-Jan-17 08:34N 51°25' E 003°29'9 9.4
2015-Jan-17 07:34N 51°23' E 003°43'1211.6
2015-Jan-17 06:34N 51°26' E 004°01'1110.8
2015-Jan-17 05:34N 51°20' E 004°16'4 4.2
2015-Jan-17 04:34N 51°17' E 004°20'1 1.3
2015-Jan-17 03:33N 51°18' E 004°20'2 1.5
2015-Jan-17 02:32N 51°19' E 004°20'0 0.0
2015-Jan-17 01:29N 51°19' E 004°20'0 0.0
2015-Jan-17 00:32N 51°19' E 004°20'0 0.0
2015-Jan-16 23:32N 51°19' E 004°20'0 0.0
2015-Jan-16 22:32N 51°19' E 004°20'0 0.0
2015-Jan-16 21:29N 51°19' E 004°20'0 0.0
2015-Jan-16 20:32N 51°19' E 004°20'0 0.1
2015-Jan-16 19:32N 51°19' E 004°20'0 0.0
2015-Jan-16 18:29N 51°19' E 004°20'0 0.0
2015-Jan-16 17:26N 51°19' E 004°20'0 0.0
2015-Jan-16 16:26N 51°19' E 004°20'0 0.0
2015-Jan-16 15:32N 51°19' E 004°20'0 0.0
2015-Jan-16 14:32N 51°19' E 004°20'0 0.0
2015-Jan-16 13:32N 51°19' E 004°20'0 0.0
2015-Jan-16 12:32N 51°19' E 004°20'1 1.2
2015-Jan-16 11:33N 51°18' E 004°19'2 1.9
2015-Jan-16 10:32N 51°17' E 004°21'0 0.0
2015-Jan-16 09:32N 51°17' E 004°21'0 0.0
2015-Jan-16 08:32N 51°17' E 004°21'0 0.0
2015-Jan-16 07:29N 51°17' E 004°21'0 0.0
2015-Jan-16 06:32N 51°17' E 004°21'0 0.0
2015-Jan-16 05:32N 51°17' E 004°21'0 0.0
2015-Jan-16 04:32N 51°17' E 004°21'0 0.0
2015-Jan-16 03:29N 51°17' E 004°21'  

Dump ship's entire track history